createdAt,value
2022-11-06T00:02:29.828Z,84.12
2022-11-06T00:05:22.213Z,84.04
2022-11-06T00:07:49.672Z,83.96
2022-11-06T00:10:20.279Z,84.30
2022-11-06T00:12:50.803Z,84.09
2022-11-06T00:15:20.855Z,83.67
2022-11-06T00:17:52.197Z,83.79
2022-11-06T00:20:24.598Z,84.16
2022-11-06T00:22:54.389Z,83.51
2022-11-06T00:25:24.201Z,83.42
2022-11-06T00:27:54.079Z,83.44
2022-11-06T00:30:24.120Z,83.31
2022-11-06T00:32:53.936Z,83.31
2022-11-06T00:35:26.370Z,82.86
2022-11-06T00:37:56.187Z,83.58
2022-11-06T00:40:26.050Z,83.23
2022-11-06T00:42:59.657Z,83.06
2022-11-06T00:45:29.509Z,83.43
2022-11-06T00:47:59.392Z,83.23
2022-11-06T00:50:31.827Z,83.59
2022-11-06T00:53:01.731Z,83.63
2022-11-06T00:55:31.510Z,83.65
2022-11-06T00:58:01.491Z,83.81
2022-11-06T01:00:31.845Z,83.75
2022-11-06T01:03:01.847Z,83.86
2022-11-06T01:05:35.454Z,83.95
2022-11-06T01:08:05.262Z,84.26
2022-11-06T01:10:35.085Z,84.80
2022-11-06T01:13:04.849Z,85.12
2022-11-06T01:15:34.625Z,84.88
2022-11-06T01:18:04.394Z,86.03
2022-11-06T01:20:36.758Z,85.43
2022-11-06T01:23:06.637Z,86.03
2022-11-06T01:25:36.434Z,85.96
2022-11-06T01:28:06.596Z,85.59
2022-11-06T01:30:39.245Z,85.71
2022-11-06T01:33:09.042Z,85.50
2022-11-06T01:35:47.724Z,85.55
2022-11-06T01:38:18.299Z,85.91
2022-11-06T01:40:49.947Z,85.75
2022-11-06T01:43:22.395Z,85.54
2022-11-06T01:45:54.200Z,85.88
2022-11-06T01:48:26.910Z,85.75
2022-11-06T01:51:00.927Z,85.37
2022-11-06T01:53:31.162Z,85.21
2022-11-06T01:56:03.414Z,85.04
2022-11-06T01:58:37.051Z,85.18
2022-11-06T02:01:08.783Z,85.63
2022-11-06T02:03:39.374Z,86.15
2022-11-06T02:06:12.881Z,86.10
2022-11-06T02:08:42.683Z,86.10
2022-11-06T02:11:12.475Z,85.87
2022-11-06T02:13:51.362Z,85.46
2022-11-06T02:16:29.595Z,85.83
2022-11-06T02:19:15.372Z,86.17
2022-11-06T02:22:21.122Z,86.77
2022-11-06T02:25:15.748Z,87.28
2022-11-06T02:27:51.758Z,87.91
2022-11-06T02:30:22.174Z,87.93
2022-11-06T02:32:59.734Z,87.65
2022-11-06T02:35:35.549Z,87.69
2022-11-06T02:38:10.180Z,87.98
2022-11-06T02:40:43.781Z,87.98
2022-11-06T02:43:18.449Z,88.14
2022-11-06T02:45:51.916Z,88.08
2022-11-06T02:48:25.850Z,88.25
2022-11-06T02:50:58.385Z,88.31
2022-11-06T02:53:29.604Z,88.31
2022-11-06T02:56:05.155Z,88.19
2022-11-06T02:58:47.761Z,88.29
2022-11-06T03:01:24.365Z,88.28
2022-11-06T03:03:58.429Z,88.60
2022-11-06T03:06:36.196Z,88.36
2022-11-06T03:09:09.655Z,87.88
2022-11-06T03:11:41.391Z,88.23
2022-11-06T03:14:19.922Z,88.73
2022-11-06T03:16:59.048Z,88.97
2022-11-06T03:19:33.214Z,88.96
2022-11-06T03:22:09.947Z,88.51
2022-11-06T03:24:49.663Z,89.24
2022-11-06T03:27:23.421Z,89.38
2022-11-06T03:30:03.095Z,89.06
2022-11-06T03:32:37.559Z,89.66
2022-11-06T03:35:12.974Z,89.59
2022-11-06T03:37:47.197Z,89.26
2022-11-06T03:40:22.522Z,89.16
2022-11-06T03:42:57.526Z,88.67
2022-11-06T03:45:32.532Z,88.90
2022-11-06T03:48:07.638Z,88.32
2022-11-06T03:50:42.413Z,88.50
2022-11-06T03:53:18.080Z,88.87
2022-11-06T03:55:53.046Z,88.34
2022-11-06T03:58:27.000Z,89.04
2022-11-06T04:01:02.036Z,88.76
2022-11-06T04:03:35.824Z,89.05
2022-11-06T04:06:11.193Z,89.66
2022-11-06T04:08:54.997Z,90.17
2022-11-06T04:11:41.261Z,90.21
2022-11-06T04:14:12.021Z,90.05
2022-11-06T04:16:48.987Z,90.20
2022-11-06T04:19:21.020Z,90.65
2022-11-06T04:22:04.890Z,90.03
2022-11-06T04:25:01.328Z,89.54
2022-11-06T04:27:44.931Z,89.82
2022-11-06T04:30:17.860Z,90.21
2022-11-06T04:33:04.904Z,89.39
2022-11-06T04:35:46.047Z,90.06
2022-11-06T04:38:25.969Z,90.87
2022-11-06T04:41:02.594Z,90.51
2022-11-06T04:43:42.288Z,89.82
2022-11-06T04:46:16.200Z,90.39
2022-11-06T04:48:50.141Z,90.10
2022-11-06T04:51:24.762Z,91.04
2022-11-06T04:53:56.275Z,91.08
2022-11-06T04:56:34.813Z,90.68
2022-11-06T04:59:05.347Z,90.78
2022-11-06T05:01:35.717Z,90.44
2022-11-06T05:04:08.703Z,89.89
2022-11-06T05:06:38.485Z,90.28
2022-11-06T05:09:08.361Z,89.84
2022-11-06T05:11:38.584Z,89.24
2022-11-06T05:14:08.577Z,89.28
2022-11-06T05:16:38.530Z,88.47
2022-11-06T05:19:11.086Z,88.40
2022-11-06T05:21:53.320Z,88.82
2022-11-06T05:24:23.190Z,88.90
2022-11-06T05:26:58.904Z,88.83
2022-11-06T05:29:29.180Z,88.49
2022-11-06T05:31:58.965Z,88.28
2022-11-06T05:34:31.490Z,88.39
2022-11-06T05:37:01.442Z,88.29
2022-11-06T05:39:31.236Z,88.46
2022-11-06T05:42:01.160Z,88.12
2022-11-06T05:44:31.025Z,88.34
2022-11-06T05:47:00.843Z,88.62
2022-11-06T05:49:33.276Z,88.81
2022-11-06T05:52:03.093Z,88.48
2022-11-06T05:54:32.891Z,88.22
2022-11-06T05:57:02.759Z,88.53
2022-11-06T05:59:33.646Z,88.19
2022-11-06T06:02:03.593Z,88.26
2022-11-06T06:04:36.109Z,88.30
2022-11-06T06:07:05.962Z,88.27
2022-11-06T06:09:35.736Z,87.44
2022-11-06T06:12:05.583Z,87.41
2022-11-06T06:14:35.376Z,87.21
2022-11-06T06:17:05.196Z,87.43
2022-11-06T06:19:37.687Z,87.13
2022-11-06T06:22:07.520Z,87.08
2022-11-06T06:24:38.201Z,87.75
2022-11-06T06:27:08.156Z,88.09
2022-11-06T06:29:37.922Z,88.71
2022-11-06T06:32:08.364Z,89.11
2022-11-06T06:34:41.745Z,89.55
2022-11-06T06:37:14.355Z,90.03
2022-11-06T06:39:47.447Z,90.21
2022-11-06T06:42:19.328Z,90.76
2022-11-06T06:44:50.183Z,91.09
2022-11-06T06:47:21.013Z,90.81
2022-11-06T06:49:53.845Z,91.04
2022-11-06T06:52:24.670Z,90.51
2022-11-06T06:54:55.482Z,90.35
2022-11-06T06:57:26.319Z,90.60
2022-11-06T06:59:57.216Z,90.64
2022-11-06T07:02:27.189Z,90.04
2022-11-06T07:05:00.687Z,89.71
2022-11-06T07:07:30.475Z,90.21
2022-11-06T07:10:00.372Z,89.62
2022-11-06T07:12:31.409Z,89.70
2022-11-06T07:15:02.260Z,89.40
2022-11-06T07:17:33.398Z,88.75
2022-11-06T07:20:08.161Z,88.24
2022-11-06T07:22:39.965Z,88.76
2022-11-06T07:25:11.905Z,89.01
2022-11-06T07:27:43.913Z,88.70
2022-11-06T07:30:15.866Z,89.72
2022-11-06T07:32:47.694Z,88.85
2022-11-06T07:35:21.118Z,87.80
2022-11-06T07:37:52.026Z,87.68
2022-11-06T07:40:23.918Z,87.11
2022-11-06T07:42:54.809Z,87.30
2022-11-06T07:45:25.706Z,87.23
2022-11-06T07:47:59.292Z,87.12
2022-11-06T07:50:33.505Z,86.34
2022-11-06T07:53:04.669Z,85.90
2022-11-06T07:55:40.811Z,85.33
2022-11-06T07:58:13.149Z,85.93
2022-11-06T08:00:44.188Z,86.03
2022-11-06T08:03:15.015Z,85.14
2022-11-06T08:05:48.581Z,84.80
2022-11-06T08:08:20.247Z,84.25
2022-11-06T08:10:52.096Z,84.04
2022-11-06T08:13:23.105Z,83.81
2022-11-06T08:15:53.898Z,84.26
2022-11-06T08:18:23.735Z,84.41
2022-11-06T08:20:57.141Z,83.14
2022-11-06T08:23:27.059Z,83.06
2022-11-06T08:25:59.537Z,82.79
2022-11-06T08:28:31.042Z,83.27
2022-11-06T08:31:06.500Z,82.35
2022-11-06T08:33:40.902Z,83.15
2022-11-06T08:36:14.470Z,83.31
2022-11-06T08:38:44.335Z,82.50
2022-11-06T08:41:15.604Z,81.86
2022-11-06T08:43:46.589Z,82.21
2022-11-06T08:46:16.423Z,82.24
2022-11-06T08:48:47.307Z,81.25
2022-11-06T08:51:20.714Z,81.67
2022-11-06T08:53:50.806Z,81.16
2022-11-06T08:56:21.744Z,81.53
2022-11-06T08:58:55.705Z,80.64
2022-11-06T09:01:26.953Z,80.01
2022-11-06T09:03:57.836Z,80.69
2022-11-06T09:06:31.258Z,80.45
2022-11-06T09:09:02.306Z,81.63
2022-11-06T09:11:33.216Z,81.49
2022-11-06T09:14:04.071Z,81.34
2022-11-06T09:16:34.091Z,80.25
2022-11-06T09:19:04.921Z,80.41
2022-11-06T09:21:38.470Z,80.45
2022-11-06T09:24:09.653Z,79.96
2022-11-06T09:26:40.462Z,80.10
2022-11-06T09:29:11.341Z,80.33
2022-11-06T09:31:43.892Z,79.09
2022-11-06T09:34:14.768Z,80.61
2022-11-06T09:36:48.263Z,80.27
2022-11-06T09:39:18.310Z,79.84
2022-11-06T09:41:57.670Z,79.59
2022-11-06T09:44:47.215Z,79.37
2022-11-06T09:47:24.831Z,80.06
2022-11-06T09:49:58.148Z,79.65
2022-11-06T09:52:37.673Z,78.81
2022-11-06T09:55:16.696Z,78.75
2022-11-06T09:57:51.848Z,79.42
2022-11-06T10:00:23.175Z,78.93
2022-11-06T10:02:56.580Z,77.64
2022-11-06T10:05:29.300Z,77.80
2022-11-06T10:08:07.758Z,78.55
2022-11-06T10:10:49.380Z,78.39
2022-11-06T10:13:35.952Z,77.78
2022-11-06T10:16:15.930Z,78.49
2022-11-06T10:18:56.622Z,77.51
2022-11-06T10:21:38.007Z,76.97
2022-11-06T10:24:24.001Z,77.09
2022-11-06T10:26:58.382Z,77.62
2022-11-06T10:29:43.529Z,77.80
2022-11-06T10:32:33.364Z,76.58
2022-11-06T10:35:09.463Z,77.65
2022-11-06T10:37:47.921Z,76.27
2022-11-06T10:40:24.882Z,76.71
2022-11-06T10:43:03.950Z,75.27
2022-11-06T10:45:37.119Z,76.15
2022-11-06T10:48:27.380Z,74.44
2022-11-06T10:51:16.359Z,75.37
2022-11-06T10:53:57.228Z,75.36
2022-11-06T10:56:49.814Z,74.17
2022-11-06T10:59:21.015Z,75.15
2022-11-06T11:01:52.628Z,75.39
2022-11-06T11:04:23.698Z,75.45
2022-11-06T11:06:54.496Z,75.66
2022-11-06T11:09:33.949Z,74.39
2022-11-06T11:12:08.070Z,73.77
2022-11-06T11:14:38.967Z,73.60
2022-11-06T11:17:11.117Z,74.13
2022-11-06T11:19:44.123Z,74.13
2022-11-06T11:22:22.092Z,74.05
2022-11-06T11:25:11.794Z,75.69
2022-11-06T11:27:48.182Z,74.01
2022-11-06T11:30:26.318Z,73.92
2022-11-06T11:32:57.790Z,73.00
2022-11-06T11:35:30.889Z,72.88
2022-11-06T11:38:11.210Z,72.21
2022-11-06T11:40:42.776Z,71.99
2022-11-06T11:43:37.332Z,72.44
2022-11-06T11:46:20.902Z,73.80
2022-11-06T11:48:55.798Z,72.34
2022-11-06T11:51:34.881Z,71.92
2022-11-06T11:54:08.831Z,72.13
2022-11-06T11:57:05.604Z,71.92
2022-11-06T11:59:44.487Z,71.96
2022-11-06T12:02:25.394Z,71.61
2022-11-06T12:05:02.406Z,71.52
2022-11-06T12:07:36.444Z,71.46
2022-11-06T12:10:29.533Z,71.04
2022-11-06T12:13:01.378Z,71.28
2022-11-06T12:15:40.999Z,71.85
2022-11-06T12:18:16.920Z,71.99
2022-11-06T12:20:54.521Z,71.43
2022-11-06T12:23:35.016Z,70.06
2022-11-06T12:26:12.334Z,70.61
2022-11-06T12:28:46.320Z,70.30
2022-11-06T12:31:25.784Z,70.85
2022-11-06T12:34:06.124Z,70.98
2022-11-06T12:36:46.543Z,71.15
2022-11-06T12:39:22.502Z,70.69
2022-11-06T12:41:59.797Z,69.88
2022-11-06T12:44:30.848Z,68.93
2022-11-06T12:47:11.061Z,68.56
2022-11-06T12:50:16.572Z,68.73
2022-11-06T12:53:07.014Z,69.37
2022-11-06T12:55:40.514Z,69.48
2022-11-06T12:58:37.917Z,68.48
2022-11-06T13:01:18.274Z,67.51
2022-11-06T13:04:07.447Z,68.39
2022-11-06T13:07:12.777Z,68.94
2022-11-06T13:09:50.695Z,68.99
2022-11-06T13:12:27.436Z,68.65
2022-11-06T13:15:13.702Z,68.17
2022-11-06T13:17:52.037Z,68.51
2022-11-06T13:20:32.827Z,68.59
2022-11-06T13:23:09.114Z,68.27
2022-11-06T13:25:49.143Z,68.93
2022-11-06T13:28:30.943Z,68.25
2022-11-06T13:31:04.720Z,68.85
2022-11-06T13:33:40.043Z,69.41
2022-11-06T13:36:14.301Z,69.07
2022-11-06T13:38:52.594Z,69.94
2022-11-06T13:41:26.770Z,70.37
2022-11-06T13:44:03.327Z,70.07
2022-11-06T13:46:42.259Z,70.14
2022-11-06T13:49:24.536Z,69.52
2022-11-06T13:52:00.581Z,70.24
2022-11-06T13:54:44.333Z,69.59
2022-11-06T13:57:37.147Z,69.69
2022-11-06T14:00:18.942Z,70.53
2022-11-06T14:03:38.509Z,69.79
2022-11-06T14:06:11.270Z,70.59
2022-11-06T14:08:47.712Z,70.20
2022-11-06T14:11:20.649Z,69.77
2022-11-06T14:14:02.724Z,69.16
2022-11-06T14:16:35.581Z,69.37
2022-11-06T14:19:10.666Z,69.85
2022-11-06T14:21:52.237Z,69.36
2022-11-06T14:24:43.140Z,69.14
2022-11-06T14:27:15.160Z,69.18
2022-11-06T14:30:05.599Z,67.82
2022-11-06T14:32:41.072Z,67.69
2022-11-06T14:35:52.785Z,66.54
2022-11-06T14:38:35.596Z,67.00
2022-11-06T14:41:51.696Z,67.03
2022-11-06T14:44:27.527Z,67.96
2022-11-06T14:47:01.047Z,67.36
2022-11-06T14:49:38.756Z,67.65
2022-11-06T14:52:11.157Z,67.76
2022-11-06T14:54:44.461Z,67.56
2022-11-06T14:57:20.305Z,67.32
2022-11-06T14:59:50.918Z,67.86
2022-11-06T15:02:25.638Z,67.65
2022-11-06T15:05:00.901Z,67.50
2022-11-06T15:08:07.311Z,67.15
2022-11-06T15:10:56.325Z,68.07
2022-11-06T15:13:32.764Z,68.60
2022-11-06T15:16:12.664Z,68.67
2022-11-06T15:18:45.753Z,69.04
2022-11-06T15:21:25.157Z,69.06
2022-11-06T15:24:06.195Z,68.58
2022-11-06T15:26:41.468Z,68.98
2022-11-06T15:29:25.579Z,67.94
2022-11-06T15:32:03.375Z,68.67
2022-11-06T15:34:38.723Z,68.34
2022-11-06T15:37:14.663Z,69.09
2022-11-06T15:39:57.536Z,68.86
2022-11-06T15:42:32.713Z,68.46
2022-11-06T15:45:22.516Z,68.26
2022-11-06T15:47:58.516Z,68.25
2022-11-06T15:50:31.260Z,68.01
2022-11-06T15:53:19.841Z,67.68
2022-11-06T15:55:55.964Z,68.44
2022-11-06T15:58:32.440Z,67.62
2022-11-06T16:01:08.092Z,68.22
2022-11-06T16:03:47.735Z,67.94
2022-11-06T16:06:19.094Z,68.33
2022-11-06T16:08:51.389Z,68.23
2022-11-06T16:11:23.838Z,68.43
2022-11-06T16:13:53.888Z,68.46
2022-11-06T16:16:44.702Z,67.68
2022-11-06T16:19:40.454Z,67.53
2022-11-06T16:22:14.776Z,67.56
2022-11-06T16:24:48.334Z,67.27
2022-11-06T16:27:18.909Z,67.12
2022-11-06T16:29:51.706Z,67.13
2022-11-06T16:32:26.545Z,66.53
2022-11-06T16:34:58.613Z,66.73
2022-11-06T16:37:42.732Z,66.87
2022-11-06T16:40:51.222Z,66.28
2022-11-06T16:43:24.283Z,67.44
2022-11-06T16:45:57.625Z,67.08
2022-11-06T16:48:38.406Z,66.64
2022-11-06T16:51:11.532Z,66.61
2022-11-06T16:54:03.652Z,66.15
2022-11-06T16:56:35.932Z,65.88
2022-11-06T16:59:10.611Z,66.03
2022-11-06T17:01:42.983Z,66.53
2022-11-06T17:04:24.370Z,66.27
2022-11-06T17:06:55.954Z,66.35
2022-11-06T17:09:33.861Z,66.47
2022-11-06T17:12:06.084Z,66.52
2022-11-06T17:14:37.121Z,66.90
2022-11-06T17:17:08.054Z,67.16
2022-11-06T17:19:40.585Z,67.22
2022-11-06T17:22:13.461Z,66.72
2022-11-06T17:24:43.466Z,66.67
2022-11-06T17:27:13.354Z,66.53
2022-11-06T17:29:44.112Z,66.73
2022-11-06T17:32:13.920Z,67.58
2022-11-06T17:34:46.526Z,67.89
2022-11-06T17:37:18.651Z,67.85
2022-11-06T17:39:49.721Z,67.65
2022-11-06T17:42:19.726Z,66.97
2022-11-06T17:44:49.537Z,66.59
2022-11-06T17:47:19.339Z,66.80
2022-11-06T17:49:54.286Z,66.73
2022-11-06T17:52:27.736Z,66.46
2022-11-06T17:55:00.230Z,66.65
2022-11-06T17:57:32.954Z,66.27
2022-11-06T18:00:05.923Z,66.55
2022-11-06T18:03:00.327Z,66.55
2022-11-06T18:05:36.241Z,66.66
2022-11-06T18:08:08.038Z,67.15
2022-11-06T18:10:40.503Z,67.00
2022-11-06T18:13:13.191Z,66.68
2022-11-06T18:15:44.247Z,66.95
2022-11-06T18:18:17.451Z,66.69
2022-11-06T18:20:54.422Z,66.69
2022-11-06T18:23:30.719Z,66.56
2022-11-06T18:26:02.180Z,66.73
2022-11-06T18:28:35.556Z,66.91
2022-11-06T18:31:06.611Z,66.71
2022-11-06T18:33:39.070Z,66.69
2022-11-06T18:36:14.621Z,66.71
2022-11-06T18:38:47.898Z,67.33
2022-11-06T18:41:27.694Z,67.82
2022-11-06T18:44:01.197Z,67.67
2022-11-06T18:46:33.970Z,67.78
2022-11-06T18:49:06.769Z,68.78
2022-11-06T18:51:40.315Z,69.53
2022-11-06T18:54:12.016Z,70.23
2022-11-06T18:56:42.215Z,71.69
2022-11-06T18:59:19.580Z,72.63
2022-11-06T19:01:50.829Z,73.80
2022-11-06T19:04:21.992Z,75.57
2022-11-06T19:06:54.722Z,76.44
2022-11-06T19:09:24.628Z,77.81
2022-11-06T19:11:55.673Z,79.04
2022-11-06T19:14:26.758Z,80.16
2022-11-06T19:16:57.782Z,80.29
2022-11-06T19:19:27.858Z,80.66
2022-11-06T19:22:02.459Z,80.39
2022-11-06T19:24:32.511Z,81.00
2022-11-06T19:27:02.429Z,82.26
2022-11-06T19:29:32.836Z,82.65
2022-11-06T19:32:04.238Z,83.30
2022-11-06T19:34:39.240Z,82.63
2022-11-06T19:37:13.141Z,83.33
2022-11-06T19:39:43.208Z,82.84
2022-11-06T19:42:14.174Z,82.58
2022-11-06T19:44:44.129Z,81.86
2022-11-06T19:47:15.493Z,82.17
2022-11-06T19:49:46.738Z,82.91
2022-11-06T19:52:41.672Z,83.12
2022-11-06T19:55:26.838Z,84.46
2022-11-06T19:57:59.976Z,85.71
2022-11-06T20:00:29.997Z,85.58
2022-11-06T20:02:59.862Z,85.41
2022-11-06T20:05:29.982Z,84.52
2022-11-06T20:08:02.623Z,84.39
2022-11-06T20:10:34.977Z,85.56
2022-11-06T20:13:07.091Z,86.21
2022-11-06T20:15:37.284Z,85.62
2022-11-06T20:18:07.503Z,85.71
2022-11-06T20:20:38.661Z,86.33
2022-11-06T20:23:12.398Z,86.16
2022-11-06T20:25:42.488Z,86.45
2022-11-06T20:28:14.468Z,87.10
2022-11-06T20:30:44.466Z,87.77
2022-11-06T20:33:16.020Z,88.09
2022-11-06T20:35:46.418Z,88.16
2022-11-06T20:38:19.073Z,88.21
2022-11-06T20:40:49.049Z,88.26
2022-11-06T20:43:22.014Z,87.90
2022-11-06T20:45:53.773Z,86.88
2022-11-06T20:48:23.798Z,87.93
2022-11-06T20:50:59.882Z,88.20
2022-11-06T20:53:33.491Z,88.18
2022-11-06T20:56:08.097Z,88.21
2022-11-06T20:58:39.525Z,87.59
2022-11-06T21:01:13.343Z,88.01
2022-11-06T21:03:43.719Z,87.69
2022-11-06T21:06:14.424Z,87.61
2022-11-06T21:08:48.918Z,86.58
2022-11-06T21:11:21.556Z,86.75
2022-11-06T21:13:53.464Z,86.74
2022-11-06T21:16:25.242Z,87.26
2022-11-06T21:18:55.700Z,87.38
2022-11-06T21:21:27.928Z,87.11
2022-11-06T21:24:00.550Z,87.17
2022-11-06T21:26:32.706Z,87.63
2022-11-06T21:29:04.178Z,87.50
2022-11-06T21:31:35.022Z,87.12
2022-11-06T21:34:07.073Z,87.49
2022-11-06T21:36:39.070Z,87.04
2022-11-06T21:39:14.538Z,86.30
2022-11-06T21:41:44.690Z,87.06
2022-11-06T21:44:16.989Z,87.02
2022-11-06T21:46:47.925Z,87.90
2022-11-06T21:49:19.751Z,86.96
2022-11-06T21:51:50.567Z,86.24
2022-11-06T21:54:36.614Z,86.22
2022-11-06T21:57:06.636Z,85.97
2022-11-06T21:59:41.451Z,85.28
2022-11-06T22:02:12.175Z,84.98
2022-11-06T22:04:42.172Z,84.61
2022-11-06T22:07:11.937Z,84.01
2022-11-06T22:09:44.321Z,82.96
2022-11-06T22:12:14.068Z,83.30
2022-11-06T22:14:43.855Z,82.36
2022-11-06T22:17:14.722Z,80.71
2022-11-06T22:19:45.099Z,81.32
2022-11-06T22:22:14.833Z,81.19
2022-11-06T22:24:47.163Z,80.91
2022-11-06T22:27:16.923Z,80.32
2022-11-06T22:29:46.692Z,79.28
2022-11-06T22:32:16.502Z,79.70
2022-11-06T22:34:46.268Z,79.30
2022-11-06T22:37:16.135Z,79.37
2022-11-06T22:39:50.499Z,78.94
2022-11-06T22:42:20.282Z,78.48
2022-11-06T22:44:50.114Z,78.72
2022-11-06T22:47:20.174Z,78.39
2022-11-06T22:49:49.922Z,77.98
2022-11-06T22:52:19.682Z,78.09
2022-11-06T22:54:52.001Z,77.83
2022-11-06T22:57:21.712Z,78.43
2022-11-06T22:59:51.429Z,78.51
2022-11-06T23:02:21.303Z,79.28
2022-11-06T23:04:51.616Z,80.14
2022-11-06T23:07:21.415Z,80.16
2022-11-06T23:09:53.798Z,79.78
2022-11-06T23:12:23.548Z,79.99
2022-11-06T23:14:53.316Z,79.95
2022-11-06T23:17:23.072Z,80.08
2022-11-06T23:19:53.135Z,80.19
2022-11-06T23:22:35.356Z,80.55
2022-11-06T23:25:09.091Z,80.93
2022-11-06T23:27:39.757Z,81.21
2022-11-06T23:30:12.001Z,80.85
2022-11-06T23:32:43.495Z,80.67
2022-11-06T23:35:17.006Z,80.83
2022-11-06T23:37:47.405Z,80.81
2022-11-06T23:40:19.862Z,80.57
2022-11-06T23:42:51.485Z,80.59
2022-11-06T23:45:33.790Z,81.42
2022-11-06T23:48:08.469Z,81.56
2022-11-06T23:50:38.565Z,81.50
2022-11-06T23:53:08.509Z,82.10
2022-11-06T23:55:41.034Z,82.05
2022-11-06T23:58:10.965Z,81.44
